此METAR来自2022年8月14日 19:00. 最近的
罗盘
风向 的 风向 的 风向 到 风向 300° Troye d'Ariège ULM 11/29
风: 6 kt, 2 beaufort

6 kt

1 kt
改变
0 2.000 4.000 6.000 8.000 10.000
BKN 7.000 ft
METAR LFMK 141700Z AUTO 30006KT 280V340 9999 BKN070 30/15 Q1008 TEMPO BKN060 FEW090CB

METAR Troye d'Ariège ULM - FR-0355

Troye d'Ariège ULM是Troye d'Ariège,法国中的小机场。 该机场有一条跑道: 11/29. 该领域的国际民航组织标志是FR-0355.

这份报告是针对2022年8月14日 19:00, 当地时间在Carcassonne Airport进行的。

机场观察

风向为300°,速度为6 kt。 风向在280°和340°之间变化。

可见度为10 km 或者更多。

有碎云在7.000 ft的高度。 破损或更高的上限为7.000 ft。

温度和风寒是30 °C。 热指数为29。 露点为15 °C,相对湿度为40%。 海平面上的气压为1008 hPa (QNH)。

发展趋势

  • 暂时的

    可变方向的风很小或没有。 碎云在6.000 ft的高度 和 几云 积雨云在9.000 ft的高度.

白天

今天,太阳从07:44升起,在19:43降落。 这适用于Troye d'Ariège ULM,世界夏令时可能有所不同。 当地时间与世界标准时间之间的时差为+2 小时。 夏令时目前正在进行中。

公司介绍

我们没有关于这个机场的公司信息。

体会

到Vliegles.nl去找飞行课程,跳伞和其他飞行体验。 浏览页面,了解Troye d'Ariège ULM附近所有可用的活动。 你也可以使用搜索功能来寻找你所在地附近的特定飞行课程、跳伞或其他飞行体验。

跑道

Id 标题 侧风 逆风 侧风 %
11/29 110°-290° 1 kt 6 kt 17 %

逆风成分最大的方向会被突出显示,并用于横风计算。 这并不一定意味着这个方向在使用。

乌云

7.000 ft BKN 碎云
6.000 ft BKN 暂时的 碎云
9.000 ft FEW 暂时的 几云 积雨云

温度 & 天气

温度 30 °C
露点 15 °C
相对湿度 40%
热度指数 29 °C
Kp-index 0  

白天

日出
06:55
中午
13:55
日落
20:55

小工具

你想在你的网站上有一个关于Troye d'Ariège ULM的当前航空天气(METAR)的小部件吗?

</> 显示HTML代码

我们和第三方通过cookies跟踪您在我们网站上的上网行为。如果您继续,我们认为您同意我们的cookie政策。 了解更多